sensor_id;sensor_type;location;lat;lon;timestamp;temperature;humidity
24686;DHT22;12804;51.176;4.452;2023-04-01T00:00:03;10.10;99.90
24686;DHT22;12804;51.176;4.452;2023-04-01T00:02:37;10.10;99.90
24686;DHT22;12804;51.176;4.452;2023-04-01T00:05:03;10.10;99.90
24686;DHT22;12804;51.176;4.452;2023-04-01T00:07:31;10.20;99.90
24686;DHT22;12804;51.176;4.452;2023-04-01T00:09:57;10.30;99.90
24686;DHT22;12804;51.176;4.452;2023-04-01T00:12:22;10.20;99.90
24686;DHT22;12804;51.176;4.452;2023-04-01T00:14:51;10.10;99.90
24686;DHT22;12804;51.176;4.452;2023-04-01T00:17:16;10.10;99.90
24686;DHT22;12804;51.176;4.452;2023-04-01T00:19:42;10.10;99.90
24686;DHT22;12804;51.176;4.452;2023-04-01T00:22:09;10.10;99.90
24686;DHT22;12804;51.176;4.452;2023-04-01T00:24:37;10.20;99.90
24686;DHT22;12804;51.176;4.452;2023-04-01T00:27:04;10.20;99.90
24686;DHT22;12804;51.176;4.452;2023-04-01T00:29:30;10.20;99.90
24686;DHT22;12804;51.176;4.452;2023-04-01T00:31:57;10.20;99.90
24686;DHT22;12804;51.176;4.452;2023-04-01T00:34:23;10.10;99.90
24686;DHT22;12804;51.176;4.452;2023-04-01T00:36:50;10.10;99.90
24686;DHT22;12804;51.176;4.452;2023-04-01T00:39:18;10.20;99.90
24686;DHT22;12804;51.176;4.452;2023-04-01T00:41:45;10.10;99.90
24686;DHT22;12804;51.176;4.452;2023-04-01T00:44:22;10.10;99.90
24686;DHT22;12804;51.176;4.452;2023-04-01T00:46:49;10.00;99.90
24686;DHT22;12804;51.176;4.452;2023-04-01T00:49:17;10.00;99.90
24686;DHT22;12804;51.176;4.452;2023-04-01T00:51:46;10.00;99.90
24686;DHT22;12804;51.176;4.452;2023-04-01T00:54:15;10.10;99.90
24686;DHT22;12804;51.176;4.452;2023-04-01T00:56:46;10.10;99.90
24686;DHT22;12804;51.176;4.452;2023-04-01T00:59:21;10.20;99.90
24686;DHT22;12804;51.176;4.452;2023-04-01T01:01:48;10.20;99.90
24686;DHT22;12804;51.176;4.452;2023-04-01T01:04:26;10.20;99.90
24686;DHT22;12804;51.176;4.452;2023-04-01T01:07:25;10.20;99.90
24686;DHT22;12804;51.176;4.452;2023-04-01T01:10:32;10.10;99.90
24686;DHT22;12804;51.176;4.452;2023-04-01T01:13:11;10.10;99.90
24686;DHT22;12804;51.176;4.452;2023-04-01T01:16:06;10.20;99.90
24686;DHT22;12804;51.176;4.452;2023-04-01T01:18:50;10.20;99.90
24686;DHT22;12804;51.176;4.452;2023-04-01T01:26:52;10.30;99.90
24686;DHT22;12804;51.176;4.452;2023-04-01T01:35:31;10.10;99.90
24686;DHT22;12804;51.176;4.452;2023-04-01T01:38:13;10.00;99.90
24686;DHT22;12804;51.176;4.452;2023-04-01T01:40:43;10.10;99.90
24686;DHT22;12804;51.176;4.452;2023-04-01T01:43:13;10.10;99.90
24686;DHT22;12804;51.176;4.452;2023-04-01T01:45:45;10.10;99.90
24686;DHT22;12804;51.176;4.452;2023-04-01T01:48:12;10.10;99.90
24686;DHT22;12804;51.176;4.452;2023-04-01T01:50:39;10.00;99.90
24686;DHT22;12804;51.176;4.452;2023-04-01T01:53:09;10.00;99.90
24686;DHT22;12804;51.176;4.452;2023-04-01T01:55:37;10.00;99.90
24686;DHT22;12804;51.176;4.452;2023-04-01T02:00:44;10.00;99.90
24686;DHT22;12804;51.176;4.452;2023-04-01T02:03:13;9.90;99.90
24686;DHT22;12804;51.176;4.452;2023-04-01T02:05:40;10.00;99.90
24686;DHT22;12804;51.176;4.452;2023-04-01T02:08:16;10.00;99.90
24686;DHT22;12804;51.176;4.452;2023-04-01T02:10:53;10.10;99.90
24686;DHT22;12804;51.176;4.452;2023-04-01T02:16:08;10.00;99.90
24686;DHT22;12804;51.176;4.452;2023-04-01T02:18:36;10.10;99.90
24686;DHT22;12804;51.176;4.452;2023-04-01T02:21:05;10.20;99.90
24686;DHT22;12804;51.176;4.452;2023-04-01T02:23:35;10.10;99.90
24686;DHT22;12804;51.176;4.452;2023-04-01T02:26:02;10.10;99.90
24686;DHT22;12804;51.176;4.452;2023-04-01T02:28:31;10.10;99.90
24686;DHT22;12804;51.176;4.452;2023-04-01T02:30:59;10.00;99.90
24686;DHT22;12804;51.176;4.452;2023-04-01T02:33:28;10.00;99.90
24686;DHT22;12804;51.176;4.452;2023-04-01T02:35:55;9.90;99.90
24686;DHT22;12804;51.176;4.452;2023-04-01T02:38:21;10.00;99.90
24686;DHT22;12804;51.176;4.452;2023-04-01T02:40:51;10.00;99.90
24686;DHT22;12804;51.176;4.452;2023-04-01T02:43:17;10.00;99.90
24686;DHT22;12804;51.176;4.452;2023-04-01T02:45:45;10.00;99.90
24686;DHT22;12804;51.176;4.452;2023-04-01T02:48:11;10.00;99.90
24686;DHT22;12804;51.176;4.452;2023-04-01T02:50:38;10.00;99.90
24686;DHT22;12804;51.176;4.452;2023-04-01T02:53:04;10.10;99.90
24686;DHT22;12804;51.176;4.452;2023-04-01T02:55:32;10.00;99.90
24686;DHT22;12804;51.176;4.452;2023-04-01T02:57:58;10.10;99.90
24686;DHT22;12804;51.176;4.452;2023-04-01T03:00:25;10.10;99.90
24686;DHT22;12804;51.176;4.452;2023-04-01T03:02:51;10.20;99.90
24686;DHT22;12804;51.176;4.452;2023-04-01T03:05:17;10.10;99.90
24686;DHT22;12804;51.176;4.452;2023-04-01T03:07:43;10.10;99.90
24686;DHT22;12804;51.176;4.452;2023-04-01T03:10:10;10.10;99.90
24686;DHT22;12804;51.176;4.452;2023-04-01T03:12:35;10.00;99.90
24686;DHT22;12804;51.176;4.452;2023-04-01T03:15:01;10.00;99.90
24686;DHT22;12804;51.176;4.452;2023-04-01T03:17:28;10.10;99.90
24686;DHT22;12804;51.176;4.452;2023-04-01T03:19:54;10.10;99.90
24686;DHT22;12804;51.176;4.452;2023-04-01T03:22:19;10.10;99.90
24686;DHT22;12804;51.176;4.452;2023-04-01T03:24:49;10.00;99.90
24686;DHT22;12804;51.176;4.452;2023-04-01T03:27:16;10.00;99.90
24686;DHT22;12804;51.176;4.452;2023-04-01T03:29:41;9.90;99.90
24686;DHT22;12804;51.176;4.452;2023-04-01T03:32:08;9.90;99.90
24686;DHT22;12804;51.176;4.452;2023-04-01T03:34:34;9.90;99.90
24686;DHT22;12804;51.176;4.452;2023-04-01T03:37:00;9.90;99.90
24686;DHT22;12804;51.176;4.452;2023-04-01T03:39:25;9.90;99.90
24686;DHT22;12804;51.176;4.452;2023-04-01T03:41:51;10.00;99.90
24686;DHT22;12804;51.176;4.452;2023-04-01T03:44:17;9.90;99.90
24686;DHT22;12804;51.176;4.452;2023-04-01T03:46:46;9.90;99.90
24686;DHT22;12804;51.176;4.452;2023-04-01T03:49:12;10.00;99.90
24686;DHT22;12804;51.176;4.452;2023-04-01T03:51:42;10.00;99.90
24686;DHT22;12804;51.176;4.452;2023-04-01T03:54:10;9.90;99.90
24686;DHT22;12804;51.176;4.452;2023-04-01T03:56:36;10.00;99.90
24686;DHT22;12804;51.176;4.452;2023-04-01T03:59:05;10.00;99.90
24686;DHT22;12804;51.176;4.452;2023-04-01T04:01:31;10.00;99.90
24686;DHT22;12804;51.176;4.452;2023-04-01T04:03:57;10.00;99.90
24686;DHT22;12804;51.176;4.452;2023-04-01T04:06:24;9.90;99.90
24686;DHT22;12804;51.176;4.452;2023-04-01T04:08:51;9.90;99.90
24686;DHT22;12804;51.176;4.452;2023-04-01T04:11:17;10.00;99.90
24686;DHT22;12804;51.176;4.452;2023-04-01T04:13:43;9.90;99.90
24686;DHT22;12804;51.176;4.452;2023-04-01T04:16:10;9.80;99.90
24686;DHT22;12804;51.176;4.452;2023-04-01T04:18:40;9.80;99.90
24686;DHT22;12804;51.176;4.452;2023-04-01T04:21:06;9.90;99.90
24686;DHT22;12804;51.176;4.452;2023-04-01T04:23:33;9.90;99.90
24686;DHT22;12804;51.176;4.452;2023-04-01T04:26:02;9.90;99.90
24686;DHT22;12804;51.176;4.452;2023-04-01T04:28:29;9.80;99.90
24686;DHT22;12804;51.176;4.452;2023-04-01T04:30:57;9.80;99.90
24686;DHT22;12804;51.176;4.452;2023-04-01T04:33:23;9.90;99.90
24686;DHT22;12804;51.176;4.452;2023-04-01T04:35:50;9.80;99.90
24686;DHT22;12804;51.176;4.452;2023-04-01T04:38:16;9.80;99.90
24686;DHT22;12804;51.176;4.452;2023-04-01T04:40:43;9.70;99.90
24686;DHT22;12804;51.176;4.452;2023-04-01T04:43:14;9.80;99.90
24686;DHT22;12804;51.176;4.452;2023-04-01T04:45:41;9.70;99.90
24686;DHT22;12804;51.176;4.452;2023-04-01T04:48:11;9.60;99.90
24686;DHT22;12804;51.176;4.452;2023-04-01T04:50:42;9.70;99.90
24686;DHT22;12804;51.176;4.452;2023-04-01T04:53:12;9.70;99.90
24686;DHT22;12804;51.176;4.452;2023-04-01T04:55:46;9.80;99.90
24686;DHT22;12804;51.176;4.452;2023-04-01T04:58:30;9.80;99.90
24686;DHT22;12804;51.176;4.452;2023-04-01T05:00:56;9.90;99.90
24686;DHT22;12804;51.176;4.452;2023-04-01T05:03:27;9.80;99.90
24686;DHT22;12804;51.176;4.452;2023-04-01T05:05:53;9.70;99.90
24686;DHT22;12804;51.176;4.452;2023-04-01T05:08:20;9.60;99.90
24686;DHT22;12804;51.176;4.452;2023-04-01T05:10:46;9.70;99.90
24686;DHT22;12804;51.176;4.452;2023-04-01T05:13:12;9.70;99.90
24686;DHT22;12804;51.176;4.452;2023-04-01T05:15:39;9.60;99.90
24686;DHT22;12804;51.176;4.452;2023-04-01T05:18:05;9.60;99.90
24686;DHT22;12804;51.176;4.452;2023-04-01T05:20:31;9.60;99.90
24686;DHT22;12804;51.176;4.452;2023-04-01T05:22:58;9.60;99.90
24686;DHT22;12804;51.176;4.452;2023-04-01T05:25:24;9.60;99.90
24686;DHT22;12804;51.176;4.452;2023-04-01T05:27:51;9.60;99.90
24686;DHT22;12804;51.176;4.452;2023-04-01T05:30:17;9.60;99.90
24686;DHT22;12804;51.176;4.452;2023-04-01T05:33:01;9.60;99.90
24686;DHT22;12804;51.176;4.452;2023-04-01T05:35:27;9.60;99.90
24686;DHT22;12804;51.176;4.452;2023-04-01T05:37:53;9.60;99.90
24686;DHT22;12804;51.176;4.452;2023-04-01T05:40:20;9.60;99.90
24686;DHT22;12804;51.176;4.452;2023-04-01T05:42:46;9.70;99.90
24686;DHT22;12804;51.176;4.452;2023-04-01T05:45:11;9.60;99.90
24686;DHT22;12804;51.176;4.452;2023-04-01T05:47:59;9.70;99.90
24686;DHT22;12804;51.176;4.452;2023-04-01T05:50:28;9.70;99.90
24686;DHT22;12804;51.176;4.452;2023-04-01T05:52:54;9.80;99.90
24686;DHT22;12804;51.176;4.452;2023-04-01T05:55:21;9.70;99.90
24686;DHT22;12804;51.176;4.452;2023-04-01T05:57:49;9.70;99.90
24686;DHT22;12804;51.176;4.452;2023-04-01T06:00:16;9.60;99.90
24686;DHT22;12804;51.176;4.452;2023-04-01T06:02:42;9.60;99.90
24686;DHT22;12804;51.176;4.452;2023-04-01T06:05:20;9.60;99.90
24686;DHT22;12804;51.176;4.452;2023-04-01T06:07:47;9.60;99.90
24686;DHT22;12804;51.176;4.452;2023-04-01T06:10:16;9.60;99.90
24686;DHT22;12804;51.176;4.452;2023-04-01T06:13:02;9.70;99.90
24686;DHT22;12804;51.176;4.452;2023-04-01T06:38:39;9.60;99.90
24686;DHT22;12804;51.176;4.452;2023-04-01T06:50:26;9.70;99.90
24686;DHT22;12804;51.176;4.452;2023-04-01T06:56:32;9.80;99.90
24686;DHT22;12804;51.176;4.452;2023-04-01T06:59:20;9.80;99.90
24686;DHT22;12804;51.176;4.452;2023-04-01T07:04:30;9.70;99.90
24686;DHT22;12804;51.176;4.452;2023-04-01T07:09:55;9.70;99.90
24686;DHT22;12804;51.176;4.452;2023-04-01T07:12:36;9.80;99.90
24686;DHT22;12804;51.176;4.452;2023-04-01T07:15:30;9.80;99.90
24686;DHT22;12804;51.176;4.452;2023-04-01T07:18:03;9.80;99.90
24686;DHT22;12804;51.176;4.452;2023-04-01T07:20:32;9.90;99.90
24686;DHT22;12804;51.176;4.452;2023-04-01T07:23:06;9.80;99.90
24686;DHT22;12804;51.176;4.452;2023-04-01T07:26:21;9.80;99.90
24686;DHT22;12804;51.176;4.452;2023-04-01T07:29:09;9.80;99.90
24686;DHT22;12804;51.176;4.452;2023-04-01T07:32:07;9.70;99.90
24686;DHT22;12804;51.176;4.452;2023-04-01T07:34:36;9.80;99.90
24686;DHT22;12804;51.176;4.452;2023-04-01T07:39:53;9.70;99.90
24686;DHT22;12804;51.176;4.452;2023-04-01T07:45:23;9.90;99.90
24686;DHT22;12804;51.176;4.452;2023-04-01T07:48:31;9.80;99.90
24686;DHT22;12804;51.176;4.452;2023-04-01T07:51:01;9.90;99.90
24686;DHT22;12804;51.176;4.452;2023-04-01T07:53:38;9.90;99.90
24686;DHT22;12804;51.176;4.452;2023-04-01T07:59:59;9.80;99.90
24686;DHT22;12804;51.176;4.452;2023-04-01T08:02:44;9.90;99.90
24686;DHT22;12804;51.176;4.452;2023-04-01T08:11:59;10.00;99.90
24686;DHT22;12804;51.176;4.452;2023-04-01T08:18:11;10.10;99.90
24686;DHT22;12804;51.176;4.452;2023-04-01T08:20:57;10.10;99.90
24686;DHT22;12804;51.176;4.452;2023-04-01T08:23:28;10.10;99.90
24686;DHT22;12804;51.176;4.452;2023-04-01T08:32:20;10.00;99.90
24686;DHT22;12804;51.176;4.452;2023-04-01T08:34:55;10.00;99.90
24686;DHT22;12804;51.176;4.452;2023-04-01T08:37:35;10.10;99.90
24686;DHT22;12804;51.176;4.452;2023-04-01T08:46:12;10.40;99.90
24686;DHT22;12804;51.176;4.452;2023-04-01T09:02:51;10.40;99.90
24686;DHT22;12804;51.176;4.452;2023-04-01T09:05:31;10.40;99.90
24686;DHT22;12804;51.176;4.452;2023-04-01T09:11:31;10.10;99.90
24686;DHT22;12804;51.176;4.452;2023-04-01T09:26:04;10.50;99.90
24686;DHT22;12804;51.176;4.452;2023-04-01T09:40:02;10.50;99.90
24686;DHT22;12804;51.176;4.452;2023-04-01T09:51:45;10.60;99.90
24686;DHT22;12804;51.176;4.452;2023-04-01T10:14:51;10.50;99.90
24686;DHT22;12804;51.176;4.452;2023-04-01T10:23:13;10.40;99.90
24686;DHT22;12804;51.176;4.452;2023-04-01T11:03:40;10.40;99.90
24686;DHT22;12804;51.176;4.452;2023-04-01T11:09:56;10.50;99.90
24686;DHT22;12804;51.176;4.452;2023-04-01T11:28:45;10.40;99.90
24686;DHT22;12804;51.176;4.452;2023-04-01T11:33:57;10.30;99.90
24686;DHT22;12804;51.176;4.452;2023-04-01T11:36:45;10.30;99.90
24686;DHT22;12804;51.176;4.452;2023-04-01T11:51:50;10.50;99.90
24686;DHT22;12804;51.176;4.452;2023-04-01T12:00:26;10.70;99.90
24686;DHT22;12804;51.176;4.452;2023-04-01T12:11:21;10.90;99.90
24686;DHT22;12804;51.176;4.452;2023-04-01T12:19:34;10.90;99.90
24686;DHT22;12804;51.176;4.452;2023-04-01T12:24:46;10.70;99.90
24686;DHT22;12804;51.176;4.452;2023-04-01T12:30:11;10.70;99.90
24686;DHT22;12804;51.176;4.452;2023-04-01T12:38:31;11.10;99.90
24686;DHT22;12804;51.176;4.452;2023-04-01T12:41:09;11.00;99.90
24686;DHT22;12804;51.176;4.452;2023-04-01T12:54:25;11.00;99.90
24686;DHT22;12804;51.176;4.452;2023-04-01T12:57:04;10.80;99.90
24686;DHT22;12804;51.176;4.452;2023-04-01T13:18:19;10.90;99.90
24686;DHT22;12804;51.176;4.452;2023-04-01T13:42:49;10.70;99.90
24686;DHT22;12804;51.176;4.452;2023-04-01T13:45:22;10.70;99.90
24686;DHT22;12804;51.176;4.452;2023-04-01T13:53:35;10.80;99.90
24686;DHT22;12804;51.176;4.452;2023-04-01T13:56:22;10.80;99.90
24686;DHT22;12804;51.176;4.452;2023-04-01T14:01:50;10.80;99.90
24686;DHT22;12804;51.176;4.452;2023-04-01T14:07:46;10.80;99.90
24686;DHT22;12804;51.176;4.452;2023-04-01T14:10:41;10.80;99.90
24686;DHT22;12804;51.176;4.452;2023-04-01T14:13:13;10.80;99.90
24686;DHT22;12804;51.176;4.452;2023-04-01T14:21:23;11.00;99.90
24686;DHT22;12804;51.176;4.452;2023-04-01T14:44:57;10.90;99.90
24686;DHT22;12804;51.176;4.452;2023-04-01T14:50:47;11.00;99.90
24686;DHT22;12804;51.176;4.452;2023-04-01T14:55:54;10.90;99.90
24686;DHT22;12804;51.176;4.452;2023-04-01T14:58:23;10.80;99.90
24686;DHT22;12804;51.176;4.452;2023-04-01T15:03:29;10.60;99.90
24686;DHT22;12804;51.176;4.452;2023-04-01T15:09:00;10.70;99.90
24686;DHT22;12804;51.176;4.452;2023-04-01T15:12:01;10.80;99.90
24686;DHT22;12804;51.176;4.452;2023-04-01T15:23:54;11.00;99.90
24686;DHT22;12804;51.176;4.452;2023-04-01T15:29:33;10.60;99.90
24686;DHT22;12804;51.176;4.452;2023-04-01T15:41:23;10.50;99.90
24686;DHT22;12804;51.176;4.452;2023-04-01T15:43:51;10.40;99.90
24686;DHT22;12804;51.176;4.452;2023-04-01T16:05:04;10.00;99.90
24686;DHT22;12804;51.176;4.452;2023-04-01T16:23:59;10.00;99.90
24686;DHT22;12804;51.176;4.452;2023-04-01T16:26:43;10.00;99.90
24686;DHT22;12804;51.176;4.452;2023-04-01T16:29:22;10.00;99.90
24686;DHT22;12804;51.176;4.452;2023-04-01T16:35:17;9.90;99.90
24686;DHT22;12804;51.176;4.452;2023-04-01T16:37:20;9.90;99.90
24686;DHT22;12804;51.176;4.452;2023-04-01T16:42:51;10.00;99.90
24686;DHT22;12804;51.176;4.452;2023-04-01T16:48:13;9.90;99.90
24686;DHT22;12804;51.176;4.452;2023-04-01T16:50:59;10.10;99.90
24686;DHT22;12804;51.176;4.452;2023-04-01T16:53:41;10.10;99.90
24686;DHT22;12804;51.176;4.452;2023-04-01T16:56:24;10.20;99.90
24686;DHT22;12804;51.176;4.452;2023-04-01T17:01:53;10.40;99.90
24686;DHT22;12804;51.176;4.452;2023-04-01T17:04:31;10.40;99.90
24686;DHT22;12804;51.176;4.452;2023-04-01T17:07:05;10.50;99.90
24686;DHT22;12804;51.176;4.452;2023-04-01T17:15:17;10.40;99.90
24686;DHT22;12804;51.176;4.452;2023-04-01T17:18:11;10.30;99.90
24686;DHT22;12804;51.176;4.452;2023-04-01T17:21:02;10.40;99.90
24686;DHT22;12804;51.176;4.452;2023-04-01T17:28:47;10.40;99.90
24686;DHT22;12804;51.176;4.452;2023-04-01T17:37:28;10.30;99.90
24686;DHT22;12804;51.176;4.452;2023-04-01T17:50:58;10.10;99.90
24686;DHT22;12804;51.176;4.452;2023-04-01T17:59:35;10.20;99.90
24686;DHT22;12804;51.176;4.452;2023-04-01T18:13:49;10.30;99.90
24686;DHT22;12804;51.176;4.452;2023-04-01T18:19:09;10.20;99.90
24686;DHT22;12804;51.176;4.452;2023-04-01T18:21:55;10.10;99.90
24686;DHT22;12804;51.176;4.452;2023-04-01T18:24:43;10.20;99.90
24686;DHT22;12804;51.176;4.452;2023-04-01T18:27:18;10.30;99.90
24686;DHT22;12804;51.176;4.452;2023-04-01T18:32:35;10.30;99.90
24686;DHT22;12804;51.176;4.452;2023-04-01T18:38:18;10.20;99.90
24686;DHT22;12804;51.176;4.452;2023-04-01T18:41:23;10.20;99.90
24686;DHT22;12804;51.176;4.452;2023-04-01T18:46:46;10.30;99.90
24686;DHT22;12804;51.176;4.452;2023-04-01T18:51:58;10.20;99.90
24686;DHT22;12804;51.176;4.452;2023-04-01T18:54:33;10.30;99.90
24686;DHT22;12804;51.176;4.452;2023-04-01T18:57:24;10.30;99.90
24686;DHT22;12804;51.176;4.452;2023-04-01T18:59:55;10.30;99.90
24686;DHT22;12804;51.176;4.452;2023-04-01T19:02:36;10.20;99.90
24686;DHT22;12804;51.176;4.452;2023-04-01T19:13:53;10.50;99.90
24686;DHT22;12804;51.176;4.452;2023-04-01T19:27:32;10.80;99.90
24686;DHT22;12804;51.176;4.452;2023-04-01T19:36:16;10.80;99.90
24686;DHT22;12804;51.176;4.452;2023-04-01T19:41:46;10.60;99.90
24686;DHT22;12804;51.176;4.452;2023-04-01T19:44:30;10.70;99.90
24686;DHT22;12804;51.176;4.452;2023-04-01T19:50:24;10.70;99.90
24686;DHT22;12804;51.176;4.452;2023-04-01T19:52:54;10.80;99.90
24686;DHT22;12804;51.176;4.452;2023-04-01T20:00:54;10.80;99.90
24686;DHT22;12804;51.176;4.452;2023-04-01T20:06:17;10.80;99.90
24686;DHT22;12804;51.176;4.452;2023-04-01T20:09:29;10.90;99.90
24686;DHT22;12804;51.176;4.452;2023-04-01T20:17:46;10.90;99.90
24686;DHT22;12804;51.176;4.452;2023-04-01T20:28:41;10.90;99.90
24686;DHT22;12804;51.176;4.452;2023-04-01T20:33:48;10.80;99.90
24686;DHT22;12804;51.176;4.452;2023-04-01T20:51:06;10.70;99.90
24686;DHT22;12804;51.176;4.452;2023-04-01T20:53:51;10.70;99.90
24686;DHT22;12804;51.176;4.452;2023-04-01T20:56:37;10.70;99.90
24686;DHT22;12804;51.176;4.452;2023-04-01T21:10:53;10.60;99.90
24686;DHT22;12804;51.176;4.452;2023-04-01T21:35:27;10.50;99.90
24686;DHT22;12804;51.176;4.452;2023-04-01T21:43:28;10.40;99.90
24686;DHT22;12804;51.176;4.452;2023-04-01T21:49:24;10.30;99.90
24686;DHT22;12804;51.176;4.452;2023-04-01T21:55:07;10.20;99.90
24686;DHT22;12804;51.176;4.452;2023-04-01T22:01:38;10.30;99.90
24686;DHT22;12804;51.176;4.452;2023-04-01T22:04:21;10.20;99.90
24686;DHT22;12804;51.176;4.452;2023-04-01T22:07:08;10.20;99.90
24686;DHT22;12804;51.176;4.452;2023-04-01T22:09:51;10.20;99.90
24686;DHT22;12804;51.176;4.452;2023-04-01T22:23:06;10.10;99.90
24686;DHT22;12804;51.176;4.452;2023-04-01T22:25:45;10.00;99.90
24686;DHT22;12804;51.176;4.452;2023-04-01T22:28:26;10.10;99.90
24686;DHT22;12804;51.176;4.452;2023-04-01T22:31:05;10.10;99.90
24686;DHT22;12804;51.176;4.452;2023-04-01T22:44:28;10.00;99.90
24686;DHT22;12804;51.176;4.452;2023-04-01T22:47:04;10.00;99.90
24686;DHT22;12804;51.176;4.452;2023-04-01T22:52:45;10.00;99.90
24686;DHT22;12804;51.176;4.452;2023-04-01T22:55:22;10.10;99.90
24686;DHT22;12804;51.176;4.452;2023-04-01T22:57:54;10.00;99.90
24686;DHT22;12804;51.176;4.452;2023-04-01T23:03:22;10.10;99.90
24686;DHT22;12804;51.176;4.452;2023-04-01T23:05:59;10.00;99.90
24686;DHT22;12804;51.176;4.452;2023-04-01T23:12:02;9.80;99.90
24686;DHT22;12804;51.176;4.452;2023-04-01T23:14:38;9.80;99.90
24686;DHT22;12804;51.176;4.452;2023-04-01T23:23:20;9.70;99.90
24686;DHT22;12804;51.176;4.452;2023-04-01T23:26:17;9.60;99.90
24686;DHT22;12804;51.176;4.452;2023-04-01T23:28:49;9.50;99.90
24686;DHT22;12804;51.176;4.452;2023-04-01T23:34:03;9.60;99.90
24686;DHT22;12804;51.176;4.452;2023-04-01T23:36:30;9.60;99.90
24686;DHT22;12804;51.176;4.452;2023-04-01T23:38:59;9.60;99.90
24686;DHT22;12804;51.176;4.452;2023-04-01T23:41:29;9.60;99.90
24686;DHT22;12804;51.176;4.452;2023-04-01T23:44:05;9.60;99.90
24686;DHT22;12804;51.176;4.452;2023-04-01T23:46:34;9.50;99.90
24686;DHT22;12804;51.176;4.452;2023-04-01T23:49:02;9.50;99.90
24686;DHT22;12804;51.176;4.452;2023-04-01T23:51:37;9.50;99.90
24686;DHT22;12804;51.176;4.452;2023-04-01T23:54:17;9.50;99.90
24686;DHT22;12804;51.176;4.452;2023-04-01T23:56:46;9.40;99.90
24686;DHT22;12804;51.176;4.452;2023-04-01T23:59:18;9.30;99.90
